createdAt,value
2023-12-17T00:01:14.692Z,8.00
2023-12-17T00:03:43.052Z,8.00
2023-12-17T00:06:12.218Z,8.00
2023-12-17T00:08:40.533Z,8.00
2023-12-17T00:11:09.345Z,8.00
2023-12-17T00:13:39.116Z,8.00
2023-12-17T00:16:08.630Z,8.10
2023-12-17T00:18:37.097Z,8.10
2023-12-17T00:21:06.222Z,8.10
2023-12-17T00:23:34.472Z,8.10
2023-12-17T00:26:03.719Z,8.10
2023-12-17T00:28:31.954Z,8.10
2023-12-17T00:31:01.900Z,8.10
2023-12-17T00:33:30.230Z,8.10
2023-12-17T00:36:00.501Z,8.10
2023-12-17T00:38:28.799Z,8.10
2023-12-17T00:40:57.304Z,8.10
2023-12-17T00:43:25.609Z,8.10
2023-12-17T00:45:54.185Z,8.10
2023-12-17T00:48:23.960Z,8.10
2023-12-17T00:50:52.625Z,8.10
2023-12-17T00:53:20.946Z,8.10
2023-12-17T00:55:49.565Z,8.10
2023-12-17T00:58:17.841Z,8.10
2023-12-17T01:00:53.339Z,8.10
2023-12-17T01:03:25.499Z,8.10
2023-12-17T01:05:54.544Z,8.10
2023-12-17T01:08:22.878Z,8.20
2023-12-17T01:10:51.504Z,8.10
2023-12-17T01:13:19.834Z,8.10
2023-12-17T01:15:48.525Z,8.10
2023-12-17T01:18:17.100Z,8.10
2023-12-17T01:20:47.485Z,8.20
2023-12-17T01:23:15.715Z,8.20
2023-12-17T01:25:44.252Z,8.20
2023-12-17T01:28:12.435Z,8.20
2023-12-17T01:30:41.942Z,8.20
2023-12-17T01:33:10.366Z,8.20
2023-12-17T01:35:39.024Z,8.20
2023-12-17T01:38:08.614Z,8.20
2023-12-17T01:40:37.396Z,8.20
2023-12-17T01:43:05.817Z,8.20
2023-12-17T01:45:34.792Z,8.20
2023-12-17T01:48:04.202Z,8.20
2023-12-17T01:50:33.408Z,8.30
2023-12-17T01:53:01.804Z,8.30
2023-12-17T01:55:32.317Z,8.30
2023-12-17T01:58:00.679Z,8.30
2023-12-17T02:00:29.381Z,8.30
2023-12-17T02:02:57.717Z,8.30
2023-12-17T02:05:26.487Z,8.30
2023-12-17T02:07:54.898Z,8.40
2023-12-17T02:10:23.529Z,8.40
2023-12-17T02:12:53.038Z,8.40
2023-12-17T02:15:21.795Z,8.40
2023-12-17T02:17:50.137Z,8.40
2023-12-17T02:20:18.786Z,8.40
2023-12-17T02:22:49.834Z,8.40
2023-12-17T02:25:19.941Z,8.40
2023-12-17T02:27:48.156Z,8.40
2023-12-17T02:30:17.078Z,8.50
2023-12-17T02:32:45.396Z,8.50
2023-12-17T02:35:14.041Z,8.50
2023-12-17T02:37:42.410Z,8.50
2023-12-17T02:40:12.121Z,8.50
2023-12-17T02:42:41.767Z,8.50
2023-12-17T02:45:11.175Z,8.50
2023-12-17T02:47:39.745Z,8.50
2023-12-17T02:50:09.047Z,8.50
2023-12-17T02:52:37.255Z,8.50
2023-12-17T02:55:06.621Z,8.50
2023-12-17T02:57:35.102Z,8.50
2023-12-17T03:00:06.037Z,8.50
2023-12-17T03:02:34.443Z,8.50
2023-12-17T03:05:03.134Z,8.50
2023-12-17T03:07:31.572Z,8.50
2023-12-17T03:10:00.403Z,8.50
2023-12-17T03:12:28.818Z,8.50
2023-12-17T03:14:57.394Z,8.50
2023-12-17T03:17:27.097Z,8.50
2023-12-17T03:19:55.827Z,8.50
2023-12-17T03:22:24.241Z,8.50
2023-12-17T03:24:52.695Z,8.50
2023-12-17T03:27:20.911Z,8.50
2023-12-17T03:29:49.485Z,8.60
2023-12-17T03:32:18.004Z,8.50
2023-12-17T03:34:48.921Z,8.60
2023-12-17T03:37:17.180Z,8.50
2023-12-17T03:39:45.713Z,8.50
2023-12-17T03:42:14.005Z,8.50
2023-12-17T03:44:42.584Z,8.60
2023-12-17T03:47:11.389Z,8.60
2023-12-17T03:49:39.024Z,8.60
2023-12-17T03:52:09.194Z,8.60
2023-12-17T03:54:37.723Z,8.60
2023-12-17T03:57:06.261Z,8.60
2023-12-17T03:59:34.934Z,8.60
2023-12-17T04:02:04.169Z,8.60
2023-12-17T04:04:32.782Z,8.60
2023-12-17T04:07:00.990Z,8.60
2023-12-17T04:09:34.207Z,8.60
2023-12-17T04:12:02.592Z,8.60
2023-12-17T04:14:31.178Z,8.60
2023-12-17T04:16:59.455Z,8.60
2023-12-17T04:19:28.090Z,8.70
2023-12-17T04:21:56.388Z,8.60
2023-12-17T04:24:24.979Z,8.60
2023-12-17T04:26:54.764Z,8.70
2023-12-17T04:29:23.385Z,8.70
2023-12-17T04:31:51.675Z,8.70
2023-12-17T04:34:20.372Z,8.70
2023-12-17T04:36:48.745Z,8.70
2023-12-17T04:39:17.335Z,8.70
2023-12-17T04:41:45.705Z,8.70
2023-12-17T04:44:15.714Z,8.80
2023-12-17T04:46:44.036Z,8.80
2023-12-17T04:49:12.613Z,8.80
2023-12-17T04:51:40.931Z,8.80
2023-12-17T04:54:12.219Z,8.80
2023-12-17T04:56:40.561Z,8.90
2023-12-17T04:59:09.215Z,8.90
2023-12-17T05:01:38.886Z,8.90
2023-12-17T05:04:07.515Z,8.90
2023-12-17T05:06:35.791Z,8.90
2023-12-17T05:09:04.490Z,8.90
2023-12-17T05:11:32.827Z,8.90
2023-12-17T05:14:01.441Z,8.90
2023-12-17T05:16:29.916Z,9.00
2023-12-17T05:19:00.076Z,9.00
2023-12-17T05:21:28.689Z,9.00
2023-12-17T05:23:57.452Z,9.00
2023-12-17T05:26:25.748Z,9.00
2023-12-17T05:28:54.300Z,9.00
2023-12-17T05:31:22.680Z,9.00
2023-12-17T05:33:51.475Z,9.00
2023-12-17T05:36:21.292Z,9.00
2023-12-17T05:38:49.836Z,9.10
2023-12-17T05:41:18.282Z,9.10
2023-12-17T05:43:46.757Z,9.10
2023-12-17T05:46:15.039Z,9.10
2023-12-17T05:48:43.674Z,9.10
2023-12-17T05:51:12.003Z,9.10
2023-12-17T05:53:46.832Z,9.10
2023-12-17T05:56:15.825Z,9.10
2023-12-17T05:58:44.926Z,9.10
2023-12-17T06:01:13.898Z,9.10
2023-12-17T06:03:42.692Z,9.10
2023-12-17T06:06:11.143Z,9.10
2023-12-17T06:08:41.239Z,9.20
2023-12-17T06:11:09.487Z,9.20
2023-12-17T06:13:38.112Z,9.20
2023-12-17T06:16:07.119Z,9.20
2023-12-17T06:18:35.781Z,9.20
2023-12-17T06:21:04.587Z,9.20
2023-12-17T06:23:34.531Z,9.20
2023-12-17T06:26:05.873Z,9.20
2023-12-17T06:28:34.535Z,9.20
2023-12-17T06:31:02.954Z,9.30
2023-12-17T06:33:31.776Z,9.20
2023-12-17T06:36:00.581Z,9.30
2023-12-17T06:38:29.360Z,9.30
2023-12-17T06:40:57.745Z,9.20
2023-12-17T06:43:27.633Z,9.30
2023-12-17T06:45:56.668Z,9.30
2023-12-17T06:48:25.451Z,9.30
2023-12-17T06:50:53.903Z,9.30
2023-12-17T06:53:22.371Z,9.30
2023-12-17T06:55:50.565Z,9.30
2023-12-17T06:58:19.196Z,9.30
2023-12-17T07:00:48.878Z,9.20
2023-12-17T07:03:19.682Z,9.30
2023-12-17T07:05:48.731Z,9.30
2023-12-17T07:08:17.550Z,9.20
2023-12-17T07:10:46.720Z,9.20
2023-12-17T07:13:15.356Z,9.30
2023-12-17T07:15:44.964Z,9.20
2023-12-17T07:18:15.121Z,9.30
2023-12-17T07:20:44.030Z,9.20
2023-12-17T07:23:12.670Z,9.30
2023-12-17T07:25:40.929Z,9.30
2023-12-17T07:28:09.531Z,9.30
2023-12-17T07:30:37.897Z,9.30
2023-12-17T07:33:07.574Z,9.30
2023-12-17T07:35:37.382Z,9.30
2023-12-17T07:38:05.988Z,9.30
2023-12-17T07:40:34.329Z,9.30
2023-12-17T07:43:03.310Z,9.30
2023-12-17T07:45:32.533Z,9.30
2023-12-17T07:48:01.307Z,9.30
2023-12-17T07:50:29.791Z,9.30
2023-12-17T07:52:59.949Z,9.30
2023-12-17T07:55:28.264Z,9.30
2023-12-17T07:57:56.794Z,9.30
2023-12-17T08:00:25.131Z,9.30
2023-12-17T08:02:53.739Z,9.30
2023-12-17T08:05:23.145Z,9.30
2023-12-17T08:07:51.767Z,9.30
2023-12-17T08:10:21.588Z,9.40
2023-12-17T08:12:53.049Z,9.40
2023-12-17T08:15:21.694Z,9.40
2023-12-17T08:17:50.492Z,9.40
2023-12-17T08:20:19.918Z,9.40
2023-12-17T08:22:48.474Z,9.40
2023-12-17T08:25:17.074Z,9.40
2023-12-17T08:27:47.077Z,9.40
2023-12-17T08:30:15.928Z,9.50
2023-12-17T08:32:46.616Z,9.50
2023-12-17T08:35:16.094Z,9.50
2023-12-17T08:37:44.880Z,9.60
2023-12-17T08:40:14.222Z,9.60
2023-12-17T08:42:44.823Z,9.70
2023-12-17T08:45:15.476Z,9.80
2023-12-17T08:47:44.958Z,9.90
2023-12-17T08:50:14.203Z,10.00
2023-12-17T08:52:43.037Z,10.10
2023-12-17T08:55:19.754Z,10.20
2023-12-17T08:57:51.613Z,10.40
2023-12-17T09:00:21.852Z,10.60
2023-12-17T09:02:50.472Z,10.70
2023-12-17T09:05:19.024Z,10.80
2023-12-17T09:07:47.656Z,10.90
2023-12-17T09:10:16.048Z,11.00
2023-12-17T09:12:45.022Z,11.10
2023-12-17T09:15:13.313Z,11.10
2023-12-17T09:17:45.369Z,11.20
2023-12-17T09:20:15.048Z,11.20
2023-12-17T09:22:43.808Z,11.30
2023-12-17T09:25:12.693Z,11.30
2023-12-17T09:27:41.487Z,11.40
2023-12-17T09:30:10.820Z,11.40
2023-12-17T09:32:39.764Z,11.40
2023-12-17T09:35:11.764Z,11.40
2023-12-17T09:37:40.848Z,11.50
2023-12-17T09:40:10.562Z,11.50
2023-12-17T09:42:39.459Z,11.60
2023-12-17T09:45:09.734Z,11.60
2023-12-17T09:47:38.620Z,11.70
2023-12-17T09:50:10.250Z,11.70
2023-12-17T09:52:42.084Z,11.60
2023-12-17T09:55:12.578Z,11.70
2023-12-17T09:57:41.585Z,11.70
2023-12-17T10:00:13.363Z,11.70
2023-12-17T10:02:43.045Z,11.70
2023-12-17T10:05:12.828Z,11.70
2023-12-17T10:07:41.905Z,11.70
2023-12-17T10:10:11.515Z,11.80
2023-12-17T10:12:40.463Z,11.80
2023-12-17T10:15:12.499Z,11.80
2023-12-17T10:17:41.412Z,11.80
2023-12-17T10:20:10.608Z,11.80
2023-12-17T10:22:40.845Z,11.80
2023-12-17T10:25:17.524Z,11.70
2023-12-17T10:27:46.258Z,11.70
2023-12-17T10:30:15.075Z,11.70
2023-12-17T10:32:44.786Z,11.70
2023-12-17T10:35:14.272Z,11.70
2023-12-17T10:37:45.951Z,11.70
2023-12-17T10:40:14.806Z,11.70
2023-12-17T10:42:47.678Z,11.70
2023-12-17T10:45:17.623Z,11.50
2023-12-17T10:47:48.350Z,11.60
2023-12-17T10:50:16.921Z,11.60
2023-12-17T10:52:48.424Z,11.60
2023-12-17T10:55:17.256Z,11.60
2023-12-17T10:57:49.504Z,11.60
2023-12-17T11:00:23.372Z,11.60
2023-12-17T11:02:56.818Z,11.60
2023-12-17T11:05:25.313Z,11.60
2023-12-17T11:07:55.663Z,11.60
2023-12-17T11:10:24.596Z,11.60
2023-12-17T11:12:53.417Z,11.60
2023-12-17T11:15:24.314Z,11.60
2023-12-17T11:17:55.087Z,11.60
2023-12-17T11:20:33.181Z,11.50
2023-12-17T11:23:07.012Z,11.50
2023-12-17T11:25:36.921Z,11.60
2023-12-17T11:28:05.711Z,11.50
2023-12-17T11:30:36.250Z,11.50
2023-12-17T11:33:05.806Z,11.50
2023-12-17T11:35:36.565Z,11.50
2023-12-17T11:38:07.330Z,11.50
2023-12-17T11:40:37.840Z,11.50
2023-12-17T11:43:07.141Z,11.50
2023-12-17T11:45:45.195Z,11.50
2023-12-17T11:48:16.513Z,11.50
2023-12-17T11:50:47.362Z,11.50
2023-12-17T11:53:18.392Z,11.50
2023-12-17T11:55:48.350Z,11.40
2023-12-17T11:58:18.731Z,11.40
2023-12-17T12:01:05.300Z,11.30
2023-12-17T12:03:35.355Z,11.30
2023-12-17T12:06:08.271Z,11.20
2023-12-17T12:08:40.905Z,11.10
2023-12-17T12:11:12.495Z,11.00
2023-12-17T12:13:44.574Z,11.00
2023-12-17T12:16:14.448Z,11.00
2023-12-17T12:18:43.483Z,11.00
2023-12-17T12:21:19.780Z,10.90
2023-12-17T12:23:54.587Z,10.90
2023-12-17T12:26:24.152Z,10.90
2023-12-17T12:28:59.670Z,10.90
2023-12-17T12:31:28.529Z,10.90
2023-12-17T12:34:00.541Z,10.80
2023-12-17T12:36:44.163Z,10.80
2023-12-17T12:39:15.085Z,10.70
2023-12-17T12:41:47.063Z,10.70
2023-12-17T12:44:17.332Z,10.70
2023-12-17T12:46:51.146Z,10.70
2023-12-17T12:49:20.471Z,10.70
2023-12-17T12:51:49.687Z,10.70
2023-12-17T12:54:20.239Z,10.70
2023-12-17T12:56:50.229Z,10.70
2023-12-17T12:59:23.559Z,10.70
2023-12-17T13:01:54.636Z,10.70
2023-12-17T13:04:23.658Z,10.70
2023-12-17T13:06:51.374Z,10.70
2023-12-17T13:09:22.073Z,10.60
2023-12-17T13:11:51.698Z,10.60
2023-12-17T13:14:21.311Z,10.60
2023-12-17T13:16:52.350Z,10.60
2023-12-17T13:19:24.100Z,10.60
2023-12-17T13:21:53.463Z,10.60
2023-12-17T13:24:25.393Z,10.60
2023-12-17T13:26:54.078Z,10.60
2023-12-17T13:29:22.879Z,10.60
2023-12-17T13:31:51.285Z,10.60
2023-12-17T13:34:22.442Z,10.60
2023-12-17T13:36:51.841Z,10.60
2023-12-17T13:39:20.734Z,10.60
2023-12-17T13:41:56.273Z,10.60
2023-12-17T13:44:30.422Z,10.60
2023-12-17T13:46:58.815Z,10.50
2023-12-17T13:49:27.519Z,10.50
2023-12-17T13:51:56.946Z,10.50
2023-12-17T13:54:25.746Z,10.50
2023-12-17T13:56:57.088Z,10.50
2023-12-17T13:59:26.049Z,10.50
2023-12-17T14:01:54.477Z,10.40
2023-12-17T14:04:23.184Z,10.40
2023-12-17T14:06:51.465Z,10.40
2023-12-17T14:09:20.368Z,10.40
2023-12-17T14:11:49.705Z,10.40
2023-12-17T14:14:19.750Z,10.40
2023-12-17T14:16:48.032Z,10.40
2023-12-17T14:19:16.640Z,10.40
2023-12-17T14:21:48.647Z,10.40
2023-12-17T14:24:18.771Z,10.50
2023-12-17T14:26:47.276Z,10.50
2023-12-17T14:29:16.025Z,10.50
2023-12-17T14:31:45.840Z,10.50
2023-12-17T14:34:14.668Z,10.50
2023-12-17T14:36:43.061Z,10.50
2023-12-17T14:39:12.000Z,10.50
2023-12-17T14:41:40.833Z,10.50
2023-12-17T14:44:09.564Z,10.60
2023-12-17T14:46:37.977Z,10.60
2023-12-17T14:49:07.907Z,10.50
2023-12-17T14:51:36.699Z,10.60
2023-12-17T14:54:05.449Z,10.60
2023-12-17T14:56:33.923Z,10.60
2023-12-17T14:59:04.195Z,10.60
2023-12-17T15:01:35.505Z,10.60
2023-12-17T15:04:05.651Z,10.60
2023-12-17T15:06:35.470Z,10.50
2023-12-17T15:09:05.057Z,10.50
2023-12-17T15:11:34.116Z,10.50
2023-12-17T15:14:03.467Z,10.50
2023-12-17T15:16:31.739Z,10.50
2023-12-17T15:19:02.241Z,10.50
2023-12-17T15:21:31.507Z,10.50
2023-12-17T15:24:01.636Z,10.40
2023-12-17T15:26:31.147Z,10.40
2023-12-17T15:28:59.846Z,10.40
2023-12-17T15:31:29.915Z,10.40
2023-12-17T15:33:59.782Z,10.40
2023-12-17T15:36:29.487Z,10.40
2023-12-17T15:38:58.141Z,10.40
2023-12-17T15:41:27.822Z,10.30
2023-12-17T15:43:56.589Z,10.30
2023-12-17T15:46:27.507Z,10.30
2023-12-17T15:48:56.204Z,10.30
2023-12-17T15:51:26.322Z,10.30
2023-12-17T15:53:56.384Z,10.30
2023-12-17T15:56:24.817Z,10.20
2023-12-17T15:58:55.635Z,10.20
2023-12-17T16:01:24.176Z,10.20
2023-12-17T16:03:54.511Z,10.20
2023-12-17T16:06:24.192Z,10.20
2023-12-17T16:08:53.214Z,10.10
2023-12-17T16:11:21.483Z,10.20
2023-12-17T16:14:00.758Z,10.10
2023-12-17T16:16:33.113Z,10.10
2023-12-17T16:19:04.620Z,10.10
2023-12-17T16:21:33.288Z,10.10
2023-12-17T16:24:02.071Z,10.10
2023-12-17T16:26:30.468Z,10.00
2023-12-17T16:28:59.104Z,10.00
2023-12-17T16:31:27.407Z,10.00
2023-12-17T16:33:57.523Z,10.00
2023-12-17T16:36:26.029Z,10.00
2023-12-17T16:38:57.701Z,9.90
2023-12-17T16:41:26.081Z,10.00
2023-12-17T16:43:54.803Z,10.00
2023-12-17T16:46:23.088Z,10.00
2023-12-17T16:48:58.580Z,10.00
2023-12-17T16:51:30.043Z,10.00
2023-12-17T16:53:58.819Z,9.90
2023-12-17T16:56:28.906Z,10.00
2023-12-17T16:58:57.813Z,9.90
2023-12-17T17:01:26.225Z,9.90
2023-12-17T17:03:54.986Z,9.90
2023-12-17T17:06:23.524Z,9.90
2023-12-17T17:08:53.611Z,9.90
2023-12-17T17:11:22.342Z,9.90
2023-12-17T17:13:50.954Z,9.90
2023-12-17T17:16:19.191Z,9.90
2023-12-17T17:18:48.016Z,9.90
2023-12-17T17:21:16.415Z,9.90
2023-12-17T17:23:44.965Z,9.90
2023-12-17T17:26:14.684Z,9.90
2023-12-17T17:28:43.468Z,9.90
2023-12-17T17:31:13.204Z,9.90
2023-12-17T17:33:43.229Z,9.90
2023-12-17T17:36:12.087Z,9.90
2023-12-17T17:38:41.023Z,9.80
2023-12-17T17:41:11.388Z,9.80
2023-12-17T17:43:41.675Z,9.80
2023-12-17T17:46:10.831Z,9.80
2023-12-17T17:48:39.702Z,9.80
2023-12-17T17:51:08.779Z,9.80
2023-12-17T17:53:42.839Z,9.70
2023-12-17T17:56:11.246Z,9.80
2023-12-17T17:58:43.135Z,9.70
2023-12-17T18:01:13.351Z,9.70
2023-12-17T18:03:42.867Z,9.70
2023-12-17T18:06:11.268Z,9.60
2023-12-17T18:08:39.850Z,9.60
2023-12-17T18:11:08.164Z,9.60
2023-12-17T18:13:36.887Z,9.60
2023-12-17T18:16:07.026Z,9.60
2023-12-17T18:18:36.281Z,9.60
2023-12-17T18:21:06.497Z,9.60
2023-12-17T18:23:35.206Z,9.60
2023-12-17T18:26:03.515Z,9.60
2023-12-17T18:28:34.441Z,9.50
2023-12-17T18:31:03.452Z,9.50
2023-12-17T18:33:33.670Z,9.50
2023-12-17T18:36:02.969Z,9.50
2023-12-17T18:38:31.575Z,9.50
2023-12-17T18:40:59.865Z,9.40
2023-12-17T18:43:28.442Z,9.40
2023-12-17T18:45:57.369Z,9.40
2023-12-17T18:48:26.108Z,9.40
2023-12-17T18:50:55.864Z,9.30
2023-12-17T18:53:24.581Z,9.30
2023-12-17T18:55:52.900Z,9.20
2023-12-17T18:58:21.384Z,9.20
2023-12-17T19:00:49.795Z,9.10
2023-12-17T19:03:18.479Z,9.10
2023-12-17T19:05:46.936Z,9.10
2023-12-17T19:08:17.138Z,9.00
2023-12-17T19:10:45.770Z,9.00
2023-12-17T19:13:14.566Z,9.00
2023-12-17T19:15:44.147Z,9.00
2023-12-17T19:18:12.222Z,8.90
2023-12-17T19:20:41.398Z,8.90
2023-12-17T19:23:10.088Z,8.90
2023-12-17T19:25:40.009Z,8.80
2023-12-17T19:28:08.611Z,8.70
2023-12-17T19:30:37.068Z,8.70
2023-12-17T19:33:10.483Z,8.70
2023-12-17T19:35:42.614Z,8.70
2023-12-17T19:38:11.229Z,8.60
2023-12-17T19:40:40.821Z,8.60
2023-12-17T19:43:09.331Z,8.60
2023-12-17T19:45:37.720Z,8.50
2023-12-17T19:48:07.489Z,8.50
2023-12-17T19:50:36.673Z,8.50
2023-12-17T19:53:06.011Z,8.50
2023-12-17T19:55:34.785Z,8.40
2023-12-17T19:58:05.287Z,8.50
2023-12-17T20:00:35.231Z,8.30
2023-12-17T20:03:04.034Z,8.30
2023-12-17T20:05:32.680Z,8.30
2023-12-17T20:08:01.211Z,8.30
2023-12-17T20:10:29.438Z,8.20
2023-12-17T20:12:57.980Z,8.20
2023-12-17T20:15:27.629Z,8.20
2023-12-17T20:17:56.310Z,8.20
2023-12-17T20:20:25.285Z,8.20
2023-12-17T20:22:53.932Z,8.20
2023-12-17T20:25:22.316Z,8.20
2023-12-17T20:27:50.797Z,8.20
2023-12-17T20:30:19.181Z,8.20
2023-12-17T20:32:49.253Z,8.20
2023-12-17T20:35:17.600Z,8.20
2023-12-17T20:37:46.201Z,8.10
2023-12-17T20:40:14.576Z,8.20
2023-12-17T20:42:43.416Z,8.10
2023-12-17T20:45:12.323Z,8.10
2023-12-17T20:47:41.096Z,8.10
2023-12-17T20:50:11.303Z,8.10
2023-12-17T20:52:40.003Z,8.10
2023-12-17T20:55:09.459Z,8.00
2023-12-17T20:57:38.170Z,8.10
2023-12-17T21:00:08.097Z,8.10
2023-12-17T21:02:36.284Z,8.00
2023-12-17T21:05:05.672Z,8.00
2023-12-17T21:07:35.496Z,8.00
2023-12-17T21:10:04.235Z,8.00
2023-12-17T21:12:32.817Z,8.00
2023-12-17T21:15:01.405Z,8.00
2023-12-17T21:17:29.839Z,7.90
2023-12-17T21:19:58.304Z,8.00
2023-12-17T21:22:26.504Z,8.00
2023-12-17T21:24:56.459Z,7.90
2023-12-17T21:27:25.951Z,8.00
2023-12-17T21:29:55.472Z,8.00
2023-12-17T21:32:26.173Z,8.00
2023-12-17T21:34:54.927Z,8.00
2023-12-17T21:37:23.375Z,8.00
2023-12-17T21:39:51.861Z,8.10
2023-12-17T21:42:21.761Z,8.10
2023-12-17T21:44:50.634Z,8.10
2023-12-17T21:47:18.895Z,8.10
2023-12-17T21:49:47.956Z,8.10
2023-12-17T21:52:24.899Z,8.10
2023-12-17T21:55:01.723Z,8.10
2023-12-17T21:57:40.930Z,8.10
2023-12-17T22:00:15.469Z,8.10
2023-12-17T22:02:43.895Z,8.10
2023-12-17T22:05:13.131Z,8.10
2023-12-17T22:07:42.195Z,8.20
2023-12-17T22:10:15.589Z,8.20
2023-12-17T22:12:46.101Z,8.20
2023-12-17T22:15:15.136Z,8.20
2023-12-17T22:17:43.723Z,8.20
2023-12-17T22:20:14.578Z,8.20
2023-12-17T22:22:43.000Z,8.20
2023-12-17T22:25:12.230Z,8.20
2023-12-17T22:27:41.005Z,8.20
2023-12-17T22:30:12.591Z,8.20
2023-12-17T22:32:40.969Z,8.20
2023-12-17T22:35:10.144Z,8.30
2023-12-17T22:37:38.749Z,8.20
2023-12-17T22:40:08.510Z,8.20
2023-12-17T22:42:36.900Z,8.30
2023-12-17T22:45:08.354Z,8.30
2023-12-17T22:47:39.220Z,8.20
2023-12-17T22:50:10.032Z,8.30
2023-12-17T22:52:38.337Z,8.30
2023-12-17T22:55:08.224Z,8.30
2023-12-17T22:57:36.500Z,8.30
2023-12-17T23:00:07.890Z,8.30
2023-12-17T23:02:48.964Z,8.30
2023-12-17T23:05:19.508Z,8.30
2023-12-17T23:07:47.966Z,8.30
2023-12-17T23:10:18.840Z,8.40
2023-12-17T23:12:47.474Z,8.40
2023-12-17T23:15:15.968Z,8.40
2023-12-17T23:17:44.635Z,8.40
2023-12-17T23:20:15.041Z,8.40
2023-12-17T23:22:43.394Z,8.40
2023-12-17T23:25:13.128Z,8.40
2023-12-17T23:27:42.339Z,8.40
2023-12-17T23:30:11.600Z,8.40
2023-12-17T23:32:39.899Z,8.50
2023-12-17T23:35:09.138Z,8.50
2023-12-17T23:37:38.929Z,8.50
2023-12-17T23:40:08.993Z,8.50
2023-12-17T23:42:37.346Z,8.50
2023-12-17T23:45:08.176Z,8.50
2023-12-17T23:47:38.118Z,8.50
2023-12-17T23:50:07.609Z,8.50
2023-12-17T23:52:36.591Z,8.50
2023-12-17T23:55:08.020Z,8.50
2023-12-17T23:57:36.357Z,8.50
